Flight Track Log - Related Links

Times and Time Zones

All times are in EDT time to prevent confusion due to time zone crossing. See the EJA357 flight status page for this flight to view local times or setup timezone preferences in your user account.

Time Position Orientation Groundspeed Altitude Reporting Facility
EDT Latitude Longitude Course Direction KTS MPH feet Rate Location/Type
Fri 05:18:36 PM 43.9350 -92.5367 227° Southwest 171 197 3,500  Level Minneapolis Center
Fri 05:19:38 PM 43.9019 -92.6086 237° Southwest 265 305 7,200 3,168 Climbing Minneapolis Center
Fri 05:20:41 PM 43.8333 -92.6703 213° Southwest 276 318 10,100 2,736 Climbing Minneapolis Center
Fri 05:21:43 PM 43.7661 -92.7317 213° Southwest 311 358 12,900 2,806 Climbing Minneapolis Center
Fri 05:22:45 PM 43.6889 -92.8011 213° Southwest 328 377 15,900 2,710 Climbing Minneapolis Center
Fri 05:23:47 PM 43.5917 -92.8894 213° Southwest 346 398 18,500 2,129 Climbing Minneapolis Center
Fri 05:24:00 PM 43.3751 -93.0374 227° Southwest  Level FlightAware Approximate
Fri 05:24:49 PM 43.5053 -92.9661 213° Southwest 366 421 20,300  Level Minneapolis Center
Fri 05:25:51 PM 43.4169 -93.0450 213° Southwest 381 438 22,300 1,935 Climbing Minneapolis Center
Fri 05:26:53 PM 43.3250 -93.1261 213° Southwest 391 450 24,300 2,129 Climbing Minneapolis Center
Fri 05:27:55 PM 43.2147 -93.2253 213° Southwest 399 459 26,700 2,064 Climbing Minneapolis Center
Fri 05:28:58 PM 43.1219 -93.3064 213° Southwest 399 459 28,600 1,872 Climbing Minneapolis Center
Fri 05:30:00 PM 43.0606 -93.4208 234° Southwest 388 447 30,600 1,935 Climbing Minneapolis Center
Fri 05:31:02 PM 43.0122 -93.5469 242° Southwest 380 437 32,600 1,790 Climbing Minneapolis Center
Fri 05:32:04 PM 42.9492 -93.6556 232° Southwest 385 443 34,300 1,645 Climbing Minneapolis Center
Fri 05:33:06 PM 42.8483 -93.7561 216° Southwest 378 435 36,000 1,548 Climbing Minneapolis Center
Fri 05:34:08 PM 42.7625 -93.8347 214° Southwest 378 435 37,500 968 Climbing Minneapolis Center
Fri 05:35:10 PM 42.6775 -93.9133 214° Southwest 377 434 38,000 242 Climbing Minneapolis Center
Fri 05:36:12 PM 42.5858 -93.9972 214° Southwest 391 450 38,000  Level Minneapolis Center
Fri 05:37:15 PM 42.4831 -94.0711 208° Southwest 414 476 38,000  Level Minneapolis Center
Fri 05:38:18 PM 42.3464 -94.1289 197° South 428 493 38,000  Level Minneapolis Center
Fri 05:39:20 PM 42.2283 -94.1778 197° South 432 497 38,000  Level Minneapolis Center
Fri 05:40:22 PM 42.1094 -94.2250 196° South 434 499 38,000  Level Minneapolis Center
Fri 05:41:24 PM 41.9922 -94.2728 197° South 435 501 38,000  Level Minneapolis Center
Fri 05:42:26 PM 41.8758 -94.3208 197° South 435 501 38,000  Level Minneapolis Center
Fri 05:43:29 PM 41.7614 -94.3728 199° South 435 501 38,000  Level Minneapolis Center
Fri 05:44:31 PM 41.6453 -94.4906 217° Southwest 435 501 38,000  Level Minneapolis Center
Fri 05:45:33 PM 41.5511 -94.5908 219° Southwest 434 499 38,000  Level Minneapolis Center
Fri 05:46:35 PM 41.4667 -94.7036 225° Southwest 435 501 38,000  Level Minneapolis Center
Fri 05:47:37 PM 41.4050 -94.8403 239° Southwest 429 494 38,000  Level Minneapolis Center
Fri 05:48:39 PM 41.3467 -94.9797 241° Southwest 429 494 38,000  Level Minneapolis Center
Fri 05:49:41 PM 41.2878 -95.1200 241° Southwest 429 494 38,000  Level Minneapolis Center
Fri 05:50:43 PM 41.2311 -95.2608 242° Southwest 429 494 38,000  Level Minneapolis Center
Fri 05:51:46 PM 41.1678 -95.4347 244° Southwest 432 497 38,000  Level Minneapolis Center
Fri 05:52:48 PM 41.1314 -95.5883 253° West 432 497 38,000  Level Minneapolis Center
Fri 05:53:50 PM 41.0936 -95.7425 252° West 433 498 38,000  Level Minneapolis Center
Fri 05:54:52 PM 41.0575 -95.8958 253° West 433 498 38,000  Level Minneapolis Center
Fri 05:55:54 PM 41.0233 -96.0500 254° West 433 498 38,000  Level Minneapolis Center
Fri 05:56:56 PM 40.9894 -96.2039 254° West 432 497 38,000  Level Minneapolis Center
Fri 05:57:58 PM 40.9550 -96.3575 254° West 432 497 38,000  Level Minneapolis Center
Fri 05:59:00 PM 40.9156 -96.5403 254° West 432 497 38,000  Level Minneapolis Center
Fri 06:00:03 PM 40.8800 -96.6919 253° West 432 497 38,000  Level Minneapolis Center
Fri 06:01:05 PM 40.8456 -96.8458 254° West 432 497 38,000  Level Minneapolis Center
Fri 06:02:07 PM 40.8117 -96.9994 254° West 433 498 38,000  Level Minneapolis Center
Fri 06:03:09 PM 40.7775 -97.1542 254° West 434 499 38,000  Level Minneapolis Center
Fri 06:04:11 PM 40.7453 -97.3081 255° West 435 501 38,000  Level Minneapolis Center
Fri 06:05:13 PM 40.7125 -97.4697 255° West 435 501 38,000  Level Minneapolis Center
Fri 06:06:15 PM 40.6808 -97.6244 255° West 435 501 38,000  Level Minneapolis Center
Fri 06:07:17 PM 40.6450 -97.8106 256° West 435 501 38,000  Level Minneapolis Center
Fri 06:08:20 PM 40.6158 -97.9664 256° West 435 501 38,000  Level Minneapolis Center
Fri 06:09:22 PM 40.5856 -98.1206 256° West 435 501 38,000  Level Minneapolis Center
Fri 06:10:24 PM 40.5561 -98.2764 256° West 435 501 38,000 242 Level Minneapolis Center
Fri 06:11:26 PM 40.5250 -98.4317 255° West 435 501 38,500 484 Climbing Minneapolis Center
Fri 06:12:28 PM 40.4961 -98.5869 256° West 436 502 39,000 484 Climbing Minneapolis Center
Fri 06:13:30 PM 40.4653 -98.7389 255° West 434 499 39,500 532 Climbing Minneapolis Center
Fri 06:14:32 PM 40.4311 -98.9222 256° West 432 497 40,100 532 Climbing Minneapolis Center
Fri 06:15:34 PM 40.4361 -99.0764 272° West 428 493 40,600 480 Climbing Minneapolis Center
Fri 06:16:37 PM 40.4536 -99.2297 279° West 426 490 41,100 480 Climbing Minneapolis Center
Fri 06:17:39 PM 40.4719 -99.3803 279° West 422 486 41,600 484 Climbing Minneapolis Center
Fri 06:18:41 PM 40.4886 -99.5300 278° West 418 481 42,100 484 Climbing Minneapolis Center
Fri 06:19:43 PM 40.5058 -99.6772 279° West 413 475 42,600 435 Climbing Minneapolis Center
Fri 06:20:45 PM 40.5219 -99.8247 278° West 412 474 43,000 194 Climbing Minneapolis Center
Fri 06:21:47 PM 40.5439 -100.0017 279° West 409 471 43,000  Level Minneapolis Center
Fri 06:22:49 PM 40.5592 -100.1497 278° West 409 471 43,000  Level Minneapolis Center
Fri 06:23:51 PM 40.5772 -100.3006 279° West 410 472 43,000  Level Minneapolis Center
Fri 06:24:54 PM 40.5939 -100.4486 278° West 411 473 43,000  Level Minneapolis Center
Fri 06:25:56 PM 40.6122 -100.5958 279° West 411 473 43,000  Level Minneapolis Center
Fri 06:27:05 PM 40.6286 -100.7636 277° West 407 468 43,000  Level Denver Center
Fri 06:28:07 PM 40.6281 -100.9303 270° West 406 467 43,000  Level Denver Center
Fri 06:29:09 PM 40.6142 -101.0722 263° West 406 467 43,000  Level Denver Center
Fri 06:30:11 PM 40.5975 -101.2367 262° West 405 466 43,000  Level Denver Center
Fri 06:31:13 PM 40.5856 -101.3767 264° West 405 466 43,000  Level Denver Center
Fri 06:32:15 PM 40.5692 -101.5394 263° West 404 465 43,000  Level Denver Center
Fri 06:33:17 PM 40.5572 -101.6803 264° West 404 465 43,000  Level Denver Center
Fri 06:34:19 PM 40.5319 -101.8172 256° West 404 465 43,000  Level Denver Center
Fri 06:36:24 PM 40.4400 -102.0997 247° West 406 467 43,000  Level Denver Center
Fri 06:37:26 PM 40.3878 -102.2497 245° Southwest 406 467 43,000  Level Denver Center
Fri 06:38:28 PM 40.3442 -102.3800 246° West 407 468 43,000  Level Denver Center
Fri 06:39:30 PM 40.2897 -102.5308 245° Southwest 408 470 43,000  Level Denver Center
Fri 06:40:32 PM 40.2444 -102.6597 245° Southwest 408 470 43,000  Level Denver Center
Fri 06:41:34 PM 40.1925 -102.8086 245° Southwest 409 471 43,000  Level Denver Center
Fri 06:42:36 PM 40.1442 -102.9431 245° Southwest 408 470 43,000  Level Denver Center
Fri 06:43:38 PM 40.0953 -103.0778 245° Southwest 410 472 43,000  Level Denver Center
Fri 06:44:40 PM 40.0486 -103.2125 246° West 409 471 43,000  Level Denver Center
Fri 06:45:42 PM 40.0000 -103.3456 245° Southwest 408 470 43,000  Level Denver Center
Fri 06:46:44 PM 39.9417 -103.5033 244° Southwest 406 467 43,000  Level Denver Center
Fri 06:47:47 PM 39.8939 -103.6347 245° Southwest 405 466 43,000  Level Denver Center
Fri 06:48:49 PM 39.8453 -103.7653 244° Southwest 404 465 43,000  Level Denver Center
Fri 06:49:51 PM 39.7975 -103.8986 245° Southwest 403 464 43,000  Level Denver Center
Fri 06:50:53 PM 39.7483 -104.0292 244° Southwest 405 466 43,000  Level Denver Center
Fri 06:51:55 PM 39.6894 -104.1875 244° Southwest 405 466 43,000  Level Denver Center
Fri 06:52:57 PM 39.6408 -104.3183 244° Southwest 405 466 43,000  Level Denver Center
Fri 06:53:59 PM 39.5914 -104.4514 244° Southwest 405 466 43,000  Level Denver Center
Fri 06:55:01 PM 39.5400 -104.5836 243° Southwest 405 466 43,000  Level Denver Center
Fri 06:56:03 PM 39.4875 -104.7250 244° Southwest 414 476 43,000  Level Denver Center
Fri 06:57:05 PM 39.4364 -104.8589 244° Southwest 414 476 43,000  Level Denver Center
Fri 06:58:07 PM 39.3867 -104.9906 244° Southwest 412 474 43,000  Level Denver Center
Fri 06:59:09 PM 39.3367 -105.1208 244° Southwest 407 468 43,000  Level Denver Center
Fri 07:00:11 PM 39.2872 -105.2508 244° Southwest 406 467 43,000  Level Denver Center
Fri 07:01:14 PM 39.2269 -105.4056 243° Southwest 405 466 43,000  Level Denver Center
Fri 07:02:16 PM 39.1761 -105.5367 243° Southwest 405 466 43,000  Level Denver Center
Fri 07:03:18 PM 39.1244 -105.6697 243° Southwest 411 473 43,000  Level Denver Center
Fri 07:04:20 PM 39.0736 -105.8000 243° Southwest 411 473 43,000  Level Denver Center
Fri 07:05:22 PM 39.0217 -105.9292 243° Southwest 410 472 43,000  Level Denver Center
Fri 07:06:24 PM 38.9700 -106.0586 243° Southwest 409 471 43,000  Level Denver Center
Fri 07:07:26 PM 38.9075 -106.2164 243° Southwest 410 472 43,000  Level Denver Center
Fri 07:08:28 PM 38.8597 -106.3364 243° Southwest 409 471 43,000  Level Denver Center
Fri 07:09:30 PM 38.8067 -106.4683 243° Southwest 411 473 43,000  Level Denver Center
Fri 07:10:32 PM 38.7533 -106.5994 242° Southwest 411 473 43,000  Level Denver Center
Fri 07:11:34 PM 38.7008 -106.7314 243° Southwest 411 473 43,000  Level Denver Center
Fri 07:12:36 PM 38.6367 -106.8889 242° Southwest 412 474 43,000  Level Denver Center
Fri 07:13:38 PM 38.5828 -107.0194 242° Southwest 412 474 43,000  Level Denver Center
Fri 07:14:40 PM 38.5306 -107.1475 242° Southwest 411 473 43,000  Level Denver Center
Fri 07:15:42 PM 38.4781 -107.2747 242° Southwest 410 472 43,000  Level Denver Center
Fri 07:16:44 PM 38.4183 -107.4208 242° Southwest 411 473 43,000  Level Denver Center
Fri 07:17:46 PM 38.3681 -107.5419 242° Southwest 409 471 43,000  Level Denver Center
Fri 07:18:48 PM 38.3086 -107.6825 242° Southwest 404 465 43,000  Level Denver Center
Fri 07:19:50 PM 38.2581 -107.8058 242° Southwest 405 466 43,000  Level Denver Center
Fri 07:20:52 PM 38.1967 -107.9494 241° Southwest 411 473 43,000  Level Denver Center
Fri 07:21:54 PM 38.1469 -108.0711 243° Southwest 409 471 43,000  Level Denver Center
Fri 07:22:57 PM 38.0947 -108.1925 241° Southwest 408 470 43,000  Level Denver Center
Fri 07:23:59 PM 38.0353 -108.3311 241° Southwest 408 470 43,000  Level Denver Center
Fri 07:25:01 PM 37.9744 -108.4722 241° Southwest 408 470 43,000  Level Denver Center
Fri 07:26:03 PM 37.9219 -108.5933 241° Southwest 408 470 43,000  Level Denver Center
Fri 07:27:05 PM 37.8614 -108.7344 242° Southwest 408 470 43,000  Level Denver Center
Fri 07:28:07 PM 37.8092 -108.8544 241° Southwest 408 470 43,000  Level Denver Center
Fri 07:29:09 PM 37.7489 -108.9958 242° Southwest 408 470 43,000  Level Denver Center
Fri 07:30:11 PM 37.6964 -109.1169 241° Southwest 409 471 43,000  Level Denver Center
Fri 07:31:13 PM 37.6428 -109.2369 241° Southwest 409 471 43,000  Level Denver Center
Fri 07:32:15 PM 37.5819 -109.3775 241° Southwest 409 471 43,000  Level Denver Center
Fri 07:33:17 PM 37.5292 -109.4969 241° Southwest 409 471 43,000  Level Denver Center
Fri 07:34:19 PM 37.4678 -109.6347 241° Southwest 404 465 43,000  Level Denver Center
Fri 07:35:21 PM 37.4147 -109.7553 241° Southwest 407 468 43,000  Level Denver Center
Fri 07:36:23 PM 37.3533 -109.8942 241° Southwest 408 470 43,000  Level Denver Center
Fri 07:37:25 PM 37.3000 -110.0111 240° Southwest 407 468 43,000  Level Denver Center
Fri 07:38:27 PM 37.2369 -110.1503 240° Southwest 407 468 43,000  Level Denver Center
Fri 07:39:29 PM 37.1772 -110.2831 241° Southwest 407 468 43,000  Level Denver Center
Fri 07:40:31 PM 37.1211 -110.4061 240° Southwest 407 468 43,000  Level Denver Center
Fri 07:41:34 PM 37.0656 -110.5292 241° Southwest 406 467 43,000  Level Denver Center
Fri 07:42:36 PM 37.0094 -110.6531 240° Southwest 407 468 43,000  Level Denver Center
Fri 07:43:38 PM 36.9525 -110.7756 240° Southwest 407 468 43,000  Level Denver Center
Fri 07:44:40 PM 36.8956 -110.8994 240° Southwest 409 471 43,000  Level Denver Center
Fri 07:45:42 PM 36.8264 -111.0492 240° Southwest 412 474 43,000  Level Denver Center
Fri 07:46:44 PM 36.7700 -111.1719 240° Southwest 411 473 43,000  Level Denver Center
Fri 07:47:46 PM 36.7114 -111.2969 240° Southwest 411 473 43,000  Level Denver Center
Fri 07:48:48 PM 36.6525 -111.4225 240° Southwest 414 476 43,000  Level Denver Center
Fri 07:49:50 PM 36.5936 -111.5469 240° Southwest 414 476 43,000  Level Denver Center
Fri 07:50:52 PM 36.5450 -111.6761 245° Southwest 414 476 43,000  Level Denver Center
Fri 07:51:23 PM 36.5175 -111.7550 247° West 411 473 43,000  Level Los Angeles Center
Fri 07:52:25 PM 36.4742 -111.8850 248° West 409 471 43,000  Level Los Angeles Center
Fri 07:53:27 PM 36.4300 -112.0142 247° West 408 470 43,000  Level Los Angeles Center
Fri 07:54:29 PM 36.3856 -112.1436 247° West 407 468 43,000  Level Los Angeles Center
Fri 07:55:31 PM 36.3322 -112.2992 247° West 407 468 43,000  Level Los Angeles Center
Fri 07:56:34 PM 36.2869 -112.4294 247° West 407 468 43,000  Level Los Angeles Center
Fri 07:57:36 PM 36.2419 -112.5597 247° West 408 470 43,000  Level Los Angeles Center
Fri 07:58:38 PM 36.1972 -112.6892 247° West 409 471 43,000  Level Los Angeles Center
Fri 07:59:40 PM 36.1519 -112.8175 246° West 408 470 43,000  Level Los Angeles Center
Fri 08:00:42 PM 36.1067 -112.9469 247° West 408 470 43,000  Level Los Angeles Center
Fri 08:01:44 PM 36.0511 -113.1017 246° West 408 470 43,000  Level Los Angeles Center
Fri 08:02:47 PM 36.0061 -113.2308 247° West 409 471 43,000  Level Los Angeles Center
Fri 08:03:49 PM 35.9600 -113.3589 246° West 408 470 43,000  Level Los Angeles Center
Fri 08:04:51 PM 35.9153 -113.4875 247° West 408 470 43,000  Level Los Angeles Center
Fri 08:05:53 PM 35.8692 -113.6156 246° West 408 470 43,000  Level Los Angeles Center
Fri 08:06:55 PM 35.8228 -113.7400 245° Southwest 406 467 43,000  Level Los Angeles Center
Fri 08:07:57 PM 35.7686 -113.8917 246° West 406 467 43,000  Level Los Angeles Center
Fri 08:09:00 PM 35.7233 -114.0181 246° West 406 467 43,000  Level Los Angeles Center
Fri 08:10:02 PM 35.6797 -114.1397 246° West 406 467 43,000  Level Los Angeles Center
Fri 08:11:04 PM 35.6319 -114.2681 245° Southwest 403 464 43,000  Level Los Angeles Center
Fri 08:12:06 PM 35.5844 -114.3919 245° Southwest 402 463 43,000 -581 Level Los Angeles Center
Fri 08:13:08 PM 35.5414 -114.5122 246° West 391 450 41,800 -1,790 Descending Los Angeles Center
Fri 08:14:10 PM 35.4861 -114.6597 245° Southwest 396 456 39,300 -2,256 Descending Los Angeles Center
Fri 08:15:13 PM 35.4389 -114.7869 246° West 406 467 37,100 -2,160 Descending Los Angeles Center
Fri 08:16:15 PM 35.3897 -114.9208 246° West 425 489 34,800 -2,129 Descending Los Angeles Center
Fri 08:17:17 PM 35.3394 -115.0553 245° Southwest 427 491 32,700 -1,742 Descending Los Angeles Center
Fri 08:18:19 PM 35.2892 -115.1867 245° Southwest 428 493 31,200 -1,452 Descending Los Angeles Center
Fri 08:19:21 PM 35.2383 -115.3186 245° Southwest 427 491 29,700 -1,065 Descending Los Angeles Center
Fri 08:20:23 PM 35.1861 -115.4567 245° Southwest 435 501 29,000 -336 Descending Los Angeles Center
Fri 08:21:26 PM 35.1344 -115.5944 245° Southwest 443 510 29,000 -960 Level Los Angeles Center
Fri 08:22:28 PM 35.0725 -115.7561 245° Southwest 442 509 27,000 -2,177 Descending Los Angeles Center
Fri 08:23:30 PM 35.0203 -115.8839 244° Southwest 432 497 24,500 -1,452 Descending Los Angeles Center
Fri 08:24:32 PM 34.9714 -116.0081 244° Southwest 420 483 24,000 -242 Descending Los Angeles Center
Fri 08:25:34 PM 34.9242 -116.1347 246° West 415 478 24,000 -339 Level Los Angeles Center
Fri 08:26:36 PM 34.8764 -116.2581 245° Southwest 411 473 23,300 -1,065 Descending Los Angeles Center
Fri 08:27:38 PM 34.8289 -116.3817 245° Southwest 406 467 21,800 -1,584 Descending Los Angeles Center
Fri 08:28:41 PM 34.7908 -116.5300 253° West 388 447 20,000 -864 Descending Los Angeles Center
Fri 08:29:43 PM 34.7767 -116.6606 263° West 388 447 20,000  Level Los Angeles Center
Fri 08:30:45 PM 34.7647 -116.7900 264° West 388 447 20,000  Level Los Angeles Center
Fri 08:31:47 PM 34.7519 -116.9197 263° West 388 447 20,000  Level Los Angeles Center
Fri 08:32:49 PM 34.7383 -117.0478 263° West 387 445 20,000  Level Los Angeles Center
Fri 08:33:51 PM 34.7256 -117.1722 263° West 377 434 20,000 -672 Level Los Angeles Center
Fri 08:34:54 PM 34.7094 -117.3244 263° West 377 434 18,600 -1,152 Descending Los Angeles Center
Fri 08:35:56 PM 34.6958 -117.4533 263° West 377 434 17,600 -1,016 Descending Los Angeles Center
Fri 08:36:58 PM 34.6833 -117.5800 263° West 377 434 16,500 -1,065 Descending Los Angeles Center
Fri 08:38:00 PM 34.6692 -117.7078 262° West 377 434 15,400 -1,113 Descending Los Angeles Center
Fri 08:39:02 PM 34.6556 -117.8289 262° West 367 422 14,200 -1,210 Descending Los Angeles Center
Fri 08:40:04 PM 34.6369 -117.9428 259° West 348 400 12,900 -1,306 Descending Los Angeles Center
Fri 08:41:06 PM 34.6175 -118.0581 258° West 345 397 11,500 -1,344 Descending Los Angeles Center
Fri 08:42:09 PM 34.5978 -118.1811 259° West 318 366 10,100 -1,248 Descending Los Angeles Center
Fri 08:43:11 PM 34.5789 -118.2761 256° West 276 318 8,900 -968 Descending Los Angeles Center
Fri 08:44:13 PM 34.5628 -118.3689 258° West 283 326 8,100 -387 Descending Los Angeles Center
Fri 08:45:15 PM 34.5411 -118.4656 255° West 277 319 8,100 -677 Level Los Angeles Center
Fri 08:46:17 PM 34.4731 -118.4986 202° Southwest 276 318 6,700 -1,403 Descending Los Angeles Center
Fri 08:47:19 PM 34.3911 -118.5078 185° South 276 318 5,200 -1,548 Descending Los Angeles Center
Fri 08:48:21 PM 34.3253 -118.5025 176° South 229 264 3,500 -1,392 Descending Los Angeles Center
Fri 08:49:24 PM 34.2728 -118.4944 173° South 184 212 2,300 -960 Descending Los Angeles Center
Fri 08:50:26 PM 34.2350 -118.4958 182° South 158 182 1,500 -774 Descending Los Angeles Center
Fri 08:52:00 PM 34.2098 -118.4900 180° South  Level Estimated
Fri 08:59:00 PM 34.2098 -118.4900 180° South  Level Estimated

Login

Don't have an account? Register now (free) for customized features, flight alerts, and more!